createdAt,value
2022-07-26T00:01:09.448Z,100.00
2022-07-26T00:03:38.926Z,100.00
2022-07-26T00:06:08.518Z,100.00
2022-07-26T00:08:37.950Z,100.00
2022-07-26T00:11:07.614Z,100.00
2022-07-26T00:13:38.192Z,100.00
2022-07-26T00:16:10.564Z,100.00
2022-07-26T00:18:40.282Z,100.00
2022-07-26T00:21:09.677Z,100.00
2022-07-26T00:23:41.502Z,100.00
2022-07-26T00:26:11.443Z,100.00
2022-07-26T00:28:41.618Z,100.00
2022-07-26T00:31:14.612Z,100.00
2022-07-26T00:33:44.109Z,100.00
2022-07-26T00:36:13.443Z,100.00
2022-07-26T00:38:42.822Z,100.00
2022-07-26T00:41:12.185Z,100.00
2022-07-26T00:43:56.320Z,100.00
2022-07-26T00:46:29.084Z,100.00
2022-07-26T00:48:58.648Z,100.00
2022-07-26T00:51:28.305Z,100.00
2022-07-26T00:53:57.982Z,100.00
2022-07-26T00:56:28.778Z,100.00
2022-07-26T00:58:58.214Z,100.00
2022-07-26T01:01:30.580Z,100.00
2022-07-26T01:04:00.004Z,100.00
2022-07-26T01:06:29.491Z,100.00
2022-07-26T01:08:59.103Z,100.00
2022-07-26T01:11:28.664Z,100.00
2022-07-26T01:13:58.179Z,100.00
2022-07-26T01:16:30.450Z,100.00
2022-07-26T01:19:00.045Z,100.00
2022-07-26T01:21:36.111Z,100.00
2022-07-26T01:24:06.157Z,100.00
2022-07-26T01:26:36.265Z,100.00
2022-07-26T01:29:05.766Z,100.00
2022-07-26T01:31:35.457Z,100.00
2022-07-26T01:34:05.754Z,100.00
2022-07-26T01:36:38.401Z,100.00
2022-07-26T01:39:11.859Z,100.00
2022-07-26T01:41:44.667Z,100.00
2022-07-26T01:44:14.050Z,100.00
2022-07-26T01:46:43.536Z,100.00
2022-07-26T01:49:12.950Z,100.00
2022-07-26T01:51:45.517Z,100.00
2022-07-26T01:54:15.463Z,100.00
2022-07-26T01:56:52.049Z,100.00
2022-07-26T01:59:21.423Z,100.00
2022-07-26T02:01:51.091Z,100.00
2022-07-26T02:04:32.857Z,100.00
2022-07-26T02:07:05.613Z,100.00
2022-07-26T02:09:45.746Z,100.00
2022-07-26T02:12:17.188Z,100.00
2022-07-26T02:14:46.697Z,100.00
2022-07-26T02:17:16.062Z,100.00
2022-07-26T02:19:45.467Z,100.00
2022-07-26T02:22:19.002Z,100.00
2022-07-26T02:24:48.621Z,100.00
2022-07-26T02:27:21.782Z,100.00
2022-07-26T02:29:51.270Z,100.00
2022-07-26T02:32:20.896Z,100.00
2022-07-26T02:34:50.343Z,100.00
2022-07-26T02:37:22.416Z,100.00
2022-07-26T02:39:51.944Z,100.00
2022-07-26T02:42:21.416Z,100.00
2022-07-26T02:44:50.808Z,100.00
2022-07-26T02:47:20.314Z,100.00
2022-07-26T02:49:49.859Z,100.00
2022-07-26T02:52:21.983Z,100.00
2022-07-26T02:54:53.941Z,100.00
2022-07-26T02:57:23.492Z,100.00
2022-07-26T02:59:52.947Z,100.00
2022-07-26T03:02:22.435Z,100.00
2022-07-26T03:04:52.231Z,100.00
2022-07-26T03:07:24.401Z,100.00
2022-07-26T03:09:53.807Z,100.00
2022-07-26T03:12:23.148Z,100.00
2022-07-26T03:14:52.617Z,100.00
2022-07-26T03:17:22.335Z,100.00
2022-07-26T03:19:51.736Z,100.00
2022-07-26T03:22:23.950Z,100.00
2022-07-26T03:24:53.484Z,100.00
2022-07-26T03:27:22.864Z,100.00
2022-07-26T03:29:52.438Z,100.00
2022-07-26T03:32:21.835Z,100.00
2022-07-26T03:34:51.338Z,100.00
2022-07-26T03:37:21.355Z,100.00
2022-07-26T03:39:53.527Z,100.00
2022-07-26T03:42:22.999Z,100.00
2022-07-26T03:44:52.444Z,100.00
2022-07-26T03:47:21.833Z,100.00
2022-07-26T03:49:51.225Z,100.00
2022-07-26T03:52:20.631Z,100.00
2022-07-26T03:54:49.992Z,100.00
2022-07-26T03:57:19.329Z,100.00
2022-07-26T03:59:48.724Z,100.00
2022-07-26T04:02:18.171Z,100.00
2022-07-26T04:04:47.630Z,100.00
2022-07-26T04:07:17.290Z,100.00
2022-07-26T04:09:48.897Z,100.00
2022-07-26T04:12:18.369Z,100.00
2022-07-26T04:14:50.308Z,100.00
2022-07-26T04:17:19.731Z,100.00
2022-07-26T04:19:49.186Z,100.00
2022-07-26T04:22:18.594Z,100.00
2022-07-26T04:24:48.026Z,100.00
2022-07-26T04:27:17.406Z,100.00
2022-07-26T04:29:46.845Z,100.00
2022-07-26T04:32:18.789Z,100.00
2022-07-26T04:34:48.234Z,100.00
2022-07-26T04:37:17.641Z,100.00
2022-07-26T04:39:54.504Z,100.00
2022-07-26T04:42:24.453Z,100.00
2022-07-26T04:44:53.939Z,100.00
2022-07-26T04:47:25.934Z,100.00
2022-07-26T04:49:55.489Z,100.00
2022-07-26T04:52:24.871Z,100.00
2022-07-26T04:54:54.243Z,100.00
2022-07-26T04:57:23.644Z,100.00
2022-07-26T05:00:09.921Z,100.00
2022-07-26T05:02:45.151Z,100.00
2022-07-26T05:05:14.521Z,100.00
2022-07-26T05:07:44.647Z,100.00
2022-07-26T05:10:14.545Z,100.00
2022-07-26T05:12:43.904Z,100.00
2022-07-26T05:15:14.398Z,100.00
2022-07-26T05:17:46.721Z,100.00
2022-07-26T05:20:19.222Z,100.00
2022-07-26T05:22:48.548Z,100.00
2022-07-26T05:25:17.968Z,100.00
2022-07-26T05:27:47.443Z,100.00
2022-07-26T05:30:16.943Z,100.00
2022-07-26T05:32:49.837Z,100.00
2022-07-26T05:35:19.329Z,100.00
2022-07-26T05:37:48.872Z,100.00
2022-07-26T05:40:18.959Z,100.00
2022-07-26T05:42:48.321Z,100.00
2022-07-26T05:45:17.740Z,100.00
2022-07-26T05:47:52.364Z,100.00
2022-07-26T05:50:22.417Z,100.00
2022-07-26T05:52:51.862Z,100.00
2022-07-26T05:55:21.274Z,100.00
2022-07-26T05:57:50.658Z,100.00
2022-07-26T06:00:20.927Z,100.00
2022-07-26T06:02:52.960Z,100.00
2022-07-26T06:05:22.542Z,100.00
2022-07-26T06:07:52.052Z,100.00
2022-07-26T06:10:21.384Z,100.00
2022-07-26T06:12:50.992Z,100.00
2022-07-26T06:15:20.525Z,100.00
2022-07-26T06:17:55.937Z,100.00
2022-07-26T06:20:25.640Z,100.00
2022-07-26T06:22:55.017Z,100.00
2022-07-26T06:25:24.576Z,100.00
2022-07-26T06:27:54.095Z,100.00
2022-07-26T06:30:23.589Z,100.00
2022-07-26T06:32:55.863Z,100.00
2022-07-26T06:35:29.221Z,100.00
2022-07-26T06:37:58.822Z,100.00
2022-07-26T06:40:31.578Z,100.00
2022-07-26T06:43:04.319Z,100.00
2022-07-26T06:45:34.895Z,100.00
2022-07-26T06:48:07.208Z,100.00
2022-07-26T06:50:36.590Z,100.00
2022-07-26T06:53:06.036Z,100.00
2022-07-26T06:55:35.426Z,100.00
2022-07-26T06:58:04.852Z,100.00
2022-07-26T07:00:34.658Z,100.00
2022-07-26T07:03:06.808Z,100.00
2022-07-26T07:05:37.044Z,100.00
2022-07-26T07:08:08.220Z,100.00
2022-07-26T07:10:39.897Z,100.00
2022-07-26T07:13:10.569Z,100.00
2022-07-26T07:15:39.993Z,100.00
2022-07-26T07:18:12.184Z,100.00
2022-07-26T07:20:42.666Z,100.00
2022-07-26T07:23:12.269Z,100.00
2022-07-26T07:25:41.784Z,100.00
2022-07-26T07:28:14.499Z,100.00
2022-07-26T07:30:43.943Z,100.00
2022-07-26T07:33:22.345Z,100.00
2022-07-26T07:35:55.511Z,100.00
2022-07-26T07:38:24.888Z,100.00
2022-07-26T07:40:54.616Z,100.00
2022-07-26T07:43:24.017Z,100.00
2022-07-26T07:45:53.451Z,100.00
2022-07-26T07:48:25.571Z,100.00
2022-07-26T07:50:55.396Z,100.00
2022-07-26T07:53:25.971Z,100.00
2022-07-26T07:55:56.153Z,100.00
2022-07-26T07:58:25.602Z,100.00
2022-07-26T08:00:57.634Z,100.00
2022-07-26T08:03:38.716Z,100.00
2022-07-26T08:06:10.881Z,100.00
2022-07-26T08:08:40.749Z,100.00
2022-07-26T08:11:12.548Z,100.00
2022-07-26T08:13:47.601Z,100.00
2022-07-26T08:16:17.609Z,100.00
2022-07-26T08:18:57.774Z,100.00
2022-07-26T08:21:29.052Z,100.00
2022-07-26T08:23:58.849Z,100.00
2022-07-26T08:26:28.357Z,100.00
2022-07-26T08:28:59.553Z,100.00
2022-07-26T08:31:39.306Z,100.00
2022-07-26T08:34:11.287Z,100.00
2022-07-26T08:36:54.815Z,98.96
2022-07-26T08:39:30.296Z,99.40
2022-07-26T08:41:59.656Z,100.00
2022-07-26T08:44:29.375Z,98.91
2022-07-26T08:46:58.859Z,96.70
2022-07-26T08:49:31.160Z,98.93
2022-07-26T08:52:00.609Z,98.81
2022-07-26T08:54:29.946Z,100.00
2022-07-26T08:56:59.389Z,100.00
2022-07-26T08:59:30.810Z,100.00
2022-07-26T09:02:02.534Z,100.00
2022-07-26T09:04:43.574Z,99.43
2022-07-26T09:07:16.059Z,100.00
2022-07-26T09:10:00.326Z,100.00
2022-07-26T09:12:31.046Z,100.00
2022-07-26T09:15:01.838Z,100.00
2022-07-26T09:17:41.612Z,100.00
2022-07-26T09:20:16.863Z,100.00
2022-07-26T09:23:01.070Z,100.00
2022-07-26T09:25:33.888Z,100.00
2022-07-26T09:28:04.335Z,97.38
2022-07-26T09:30:35.232Z,97.45
2022-07-26T09:33:07.000Z,100.00
2022-07-26T09:35:50.646Z,100.00
2022-07-26T09:38:21.394Z,100.00
2022-07-26T09:40:51.756Z,100.00
2022-07-26T09:43:23.833Z,100.00
2022-07-26T09:46:06.275Z,100.00
2022-07-26T09:49:08.126Z,100.00
2022-07-26T09:51:44.866Z,100.00
2022-07-26T09:54:19.879Z,100.00
2022-07-26T09:56:52.172Z,100.00
2022-07-26T09:59:23.475Z,100.00
2022-07-26T10:01:54.342Z,100.00
2022-07-26T10:04:24.690Z,100.00
2022-07-26T10:06:58.216Z,100.00
2022-07-26T10:09:32.680Z,100.00
2022-07-26T10:12:05.918Z,100.00
2022-07-26T10:14:44.844Z,100.00
2022-07-26T10:17:42.152Z,100.00
2022-07-26T10:20:17.309Z,100.00
2022-07-26T10:22:51.864Z,100.00
2022-07-26T10:25:49.438Z,100.00
2022-07-26T10:28:29.628Z,100.00
2022-07-26T10:31:30.461Z,100.00
2022-07-26T10:34:02.507Z,100.00
2022-07-26T10:36:38.714Z,100.00
2022-07-26T10:39:16.288Z,100.00
2022-07-26T10:41:50.546Z,100.00
2022-07-26T10:44:22.875Z,100.00
2022-07-26T10:47:04.375Z,100.00
2022-07-26T10:49:36.423Z,100.00
2022-07-26T10:52:18.030Z,100.00
2022-07-26T10:55:13.814Z,100.00
2022-07-26T10:57:44.913Z,100.00
2022-07-26T11:00:24.155Z,100.00
2022-07-26T11:02:57.958Z,100.00
2022-07-26T11:05:31.451Z,100.00
2022-07-26T11:08:05.442Z,100.00
2022-07-26T11:10:40.331Z,100.00
2022-07-26T11:13:12.357Z,100.00
2022-07-26T11:15:43.823Z,100.00
2022-07-26T11:18:16.772Z,100.00
2022-07-26T11:20:48.910Z,100.00
2022-07-26T11:23:34.814Z,100.00
2022-07-26T11:26:15.714Z,100.00
2022-07-26T11:28:49.702Z,100.00
2022-07-26T11:31:20.903Z,100.00
2022-07-26T11:33:53.654Z,100.00
2022-07-26T11:36:35.593Z,100.00
2022-07-26T11:39:06.524Z,100.00
2022-07-26T11:41:39.296Z,100.00
2022-07-26T11:44:09.277Z,100.00
2022-07-26T11:46:47.505Z,100.00
2022-07-26T11:49:19.382Z,100.00
2022-07-26T11:51:56.138Z,100.00
2022-07-26T11:54:27.191Z,100.00
2022-07-26T11:57:01.004Z,100.00
2022-07-26T11:59:32.902Z,100.00
2022-07-26T12:02:03.741Z,100.00
2022-07-26T12:04:35.447Z,100.00
2022-07-26T12:07:10.770Z,100.00
2022-07-26T12:09:42.137Z,100.00
2022-07-26T12:12:23.973Z,100.00
2022-07-26T12:15:00.159Z,100.00
2022-07-26T12:17:34.923Z,100.00
2022-07-26T12:20:14.981Z,100.00
2022-07-26T12:22:57.707Z,100.00
2022-07-26T12:25:28.740Z,100.00
2022-07-26T12:28:01.787Z,100.00
2022-07-26T12:30:37.952Z,100.00
2022-07-26T12:33:07.582Z,100.00
2022-07-26T12:35:37.926Z,100.00
2022-07-26T12:38:07.395Z,100.00
2022-07-26T12:40:44.114Z,100.00
2022-07-26T12:43:16.061Z,100.00
2022-07-26T12:45:46.017Z,100.00
2022-07-26T12:48:15.645Z,100.00
2022-07-26T12:50:45.160Z,100.00
2022-07-26T12:53:14.574Z,100.00
2022-07-26T12:55:44.038Z,100.00
2022-07-26T12:58:16.056Z,100.00
2022-07-26T13:00:45.568Z,100.00
2022-07-26T13:03:15.589Z,100.00
2022-07-26T13:05:45.038Z,97.37
2022-07-26T13:08:14.654Z,96.19
2022-07-26T13:10:44.160Z,97.29
2022-07-26T13:13:16.384Z,96.00
2022-07-26T13:15:46.779Z,99.13
2022-07-26T13:18:16.379Z,99.30
2022-07-26T13:20:45.831Z,99.84
2022-07-26T13:23:20.166Z,100.00
2022-07-26T13:25:51.577Z,100.00
2022-07-26T13:28:23.987Z,100.00
2022-07-26T13:30:53.514Z,100.00
2022-07-26T13:33:22.902Z,100.00
2022-07-26T13:35:52.327Z,100.00
2022-07-26T13:38:21.894Z,100.00
2022-07-26T13:40:51.952Z,100.00
2022-07-26T13:43:23.951Z,100.00
2022-07-26T13:45:53.374Z,100.00
2022-07-26T13:48:22.819Z,100.00
2022-07-26T13:50:52.424Z,100.00
2022-07-26T13:53:22.466Z,100.00
2022-07-26T13:55:52.139Z,100.00
2022-07-26T13:58:24.341Z,100.00
2022-07-26T14:00:53.819Z,100.00
2022-07-26T14:03:23.508Z,100.00
2022-07-26T14:05:53.357Z,99.69
2022-07-26T14:08:23.564Z,100.00
2022-07-26T14:10:53.080Z,96.92
2022-07-26T14:13:25.063Z,97.25
2022-07-26T14:15:54.443Z,95.58
2022-07-26T14:18:24.069Z,96.77
2022-07-26T14:20:54.154Z,96.66
2022-07-26T14:23:23.568Z,96.69
2022-07-26T14:25:52.932Z,95.81
2022-07-26T14:28:24.966Z,95.02
2022-07-26T14:30:54.398Z,93.15
2022-07-26T14:33:23.942Z,88.04
2022-07-26T14:35:53.348Z,90.47
2022-07-26T14:38:28.124Z,93.46
2022-07-26T14:41:01.235Z,96.77
2022-07-26T14:43:33.150Z,98.47
2022-07-26T14:46:03.040Z,99.77
2022-07-26T14:48:53.420Z,100.00
2022-07-26T14:51:21.982Z,100.00
2022-07-26T14:53:51.632Z,100.00
2022-07-26T14:56:21.028Z,100.00
2022-07-26T14:58:53.208Z,100.00
2022-07-26T15:01:22.702Z,100.00
2022-07-26T15:03:52.285Z,100.00
2022-07-26T15:06:22.983Z,98.48
2022-07-26T15:08:52.633Z,96.84
2022-07-26T15:11:22.466Z,96.81
2022-07-26T15:13:54.534Z,99.20
2022-07-26T15:16:24.342Z,99.45
2022-07-26T15:18:53.738Z,98.53
2022-07-26T15:21:23.369Z,97.85
2022-07-26T15:23:52.902Z,98.09
2022-07-26T15:26:22.463Z,97.33
2022-07-26T15:28:54.514Z,96.57
2022-07-26T15:31:24.863Z,96.26
2022-07-26T15:34:07.562Z,97.00
2022-07-26T15:36:37.440Z,96.12
2022-07-26T15:39:17.157Z,91.70
2022-07-26T15:41:47.799Z,86.88
2022-07-26T15:44:24.354Z,85.91
2022-07-26T15:46:55.884Z,85.13
2022-07-26T15:49:26.134Z,85.15
2022-07-26T15:51:55.518Z,83.04
2022-07-26T15:54:25.022Z,83.38
2022-07-26T15:56:54.478Z,85.59
2022-07-26T15:59:26.590Z,83.86
2022-07-26T16:01:56.129Z,83.19
2022-07-26T16:04:25.774Z,85.74
2022-07-26T16:06:55.315Z,86.68
2022-07-26T16:09:24.834Z,87.34
2022-07-26T16:11:54.273Z,88.48
2022-07-26T16:14:26.489Z,88.12
2022-07-26T16:16:58.203Z,91.26
2022-07-26T16:19:27.593Z,91.49
2022-07-26T16:21:57.124Z,91.00
2022-07-26T16:24:26.552Z,90.95
2022-07-26T16:26:56.129Z,91.49
2022-07-26T16:29:28.070Z,90.51
2022-07-26T16:31:57.808Z,89.30
2022-07-26T16:34:27.572Z,87.78
2022-07-26T16:36:56.903Z,88.00
2022-07-26T16:39:26.371Z,88.72
2022-07-26T16:41:55.752Z,87.37
2022-07-26T16:44:27.874Z,86.63
2022-07-26T16:46:57.332Z,87.15
2022-07-26T16:49:26.921Z,86.63
2022-07-26T16:51:56.344Z,86.31
2022-07-26T16:54:26.086Z,85.86
2022-07-26T16:56:55.505Z,89.12
2022-07-26T16:59:24.897Z,90.73
2022-07-26T17:01:56.950Z,91.12
2022-07-26T17:04:31.244Z,90.08
2022-07-26T17:07:23.870Z,90.51
2022-07-26T17:09:50.158Z,90.87
2022-07-26T17:12:21.750Z,88.65
2022-07-26T17:14:51.273Z,88.63
2022-07-26T17:17:24.005Z,88.13
2022-07-26T17:19:53.683Z,88.39
2022-07-26T17:22:23.545Z,88.11
2022-07-26T17:24:52.964Z,86.79
2022-07-26T17:27:22.346Z,87.52
2022-07-26T17:29:52.582Z,88.67
2022-07-26T17:32:24.548Z,88.52
2022-07-26T17:34:55.217Z,89.89
2022-07-26T17:37:24.582Z,89.09
2022-07-26T17:39:54.529Z,88.98
2022-07-26T17:42:26.803Z,90.03
2022-07-26T17:44:56.191Z,90.23
2022-07-26T17:47:30.429Z,90.31
2022-07-26T17:50:34.183Z,89.17
2022-07-26T17:52:52.460Z,90.33
2022-07-26T17:55:24.553Z,88.90
2022-07-26T17:57:54.368Z,89.32
2022-07-26T18:00:29.325Z,88.44
2022-07-26T18:03:01.537Z,89.61
2022-07-26T18:05:37.054Z,90.23
2022-07-26T18:08:09.394Z,90.45
2022-07-26T18:10:38.930Z,91.61
2022-07-26T18:13:08.769Z,92.03
2022-07-26T18:15:38.243Z,91.20
2022-07-26T18:18:10.465Z,91.33
2022-07-26T18:20:39.922Z,90.70
2022-07-26T18:23:09.426Z,91.04
2022-07-26T18:25:38.786Z,91.14
2022-07-26T18:28:09.690Z,91.34
2022-07-26T18:30:39.765Z,91.87
2022-07-26T18:33:13.405Z,92.32
2022-07-26T18:35:45.610Z,91.69
2022-07-26T18:38:14.998Z,91.71
2022-07-26T18:40:44.426Z,91.16
2022-07-26T18:43:13.819Z,89.28
2022-07-26T18:45:43.148Z,88.14
2022-07-26T18:48:15.129Z,89.00
2022-07-26T18:50:44.673Z,89.47
2022-07-26T18:53:14.104Z,89.75
2022-07-26T18:55:43.506Z,88.66
2022-07-26T18:58:15.478Z,88.26
2022-07-26T19:00:45.279Z,89.15
2022-07-26T19:03:20.343Z,89.05
2022-07-26T19:05:49.801Z,88.83
2022-07-26T19:08:19.124Z,89.68
2022-07-26T19:10:48.516Z,89.10
2022-07-26T19:13:17.898Z,87.38
2022-07-26T19:15:47.346Z,86.54
2022-07-26T19:18:20.042Z,87.17
2022-07-26T19:20:49.447Z,87.48
2022-07-26T19:23:18.795Z,88.32
2022-07-26T19:25:48.197Z,88.98
2022-07-26T19:28:17.714Z,88.24
2022-07-26T19:30:47.319Z,87.55
2022-07-26T19:33:17.065Z,87.14
2022-07-26T19:35:49.092Z,86.67
2022-07-26T19:38:18.560Z,87.87
2022-07-26T19:40:48.239Z,87.77
2022-07-26T19:43:17.656Z,89.22
2022-07-26T19:45:47.490Z,89.40
2022-07-26T19:48:17.085Z,90.15
2022-07-26T19:50:51.281Z,90.34
2022-07-26T19:53:20.831Z,90.31
2022-07-26T19:55:50.286Z,91.32
2022-07-26T19:58:19.913Z,91.70
2022-07-26T20:00:50.313Z,91.78
2022-07-26T20:03:19.938Z,91.75
2022-07-26T20:05:53.731Z,91.59
2022-07-26T20:08:23.314Z,91.75
2022-07-26T20:10:52.766Z,90.68
2022-07-26T20:13:22.147Z,91.59
2022-07-26T20:15:51.721Z,91.84
2022-07-26T20:18:24.801Z,92.35
2022-07-26T20:20:56.836Z,92.55
2022-07-26T20:23:27.993Z,92.88
2022-07-26T20:25:57.792Z,93.41
2022-07-26T20:28:31.511Z,93.72
2022-07-26T20:31:01.068Z,93.39
2022-07-26T20:33:30.728Z,94.04
2022-07-26T20:36:05.277Z,94.52
2022-07-26T20:38:34.726Z,95.04
2022-07-26T20:41:05.286Z,94.29
2022-07-26T20:43:36.027Z,94.06
2022-07-26T20:46:05.595Z,93.86
2022-07-26T20:48:35.137Z,93.69
2022-07-26T20:51:13.627Z,93.75
2022-07-26T20:53:43.786Z,94.53
2022-07-26T20:56:13.189Z,93.89
2022-07-26T20:58:43.089Z,92.46
2022-07-26T21:01:14.635Z,91.49
2022-07-26T21:03:44.259Z,90.75
2022-07-26T21:06:16.258Z,91.31
2022-07-26T21:08:45.724Z,92.26
2022-07-26T21:11:15.248Z,92.46
2022-07-26T21:13:44.858Z,92.93
2022-07-26T21:16:17.509Z,93.71
2022-07-26T21:18:52.943Z,93.39
2022-07-26T21:21:26.145Z,93.56
2022-07-26T21:23:55.619Z,94.78
2022-07-26T21:26:25.125Z,95.94
2022-07-26T21:28:57.751Z,96.25
2022-07-26T21:31:27.325Z,97.12
2022-07-26T21:33:56.819Z,98.23
2022-07-26T21:36:28.878Z,99.00
2022-07-26T21:38:58.730Z,99.82
2022-07-26T21:41:28.219Z,100.00
2022-07-26T21:43:57.642Z,100.00
2022-07-26T21:46:27.304Z,100.00
2022-07-26T21:48:56.728Z,100.00
2022-07-26T21:51:28.790Z,100.00
2022-07-26T21:53:58.222Z,100.00
2022-07-26T21:56:30.946Z,100.00
2022-07-26T21:59:00.362Z,100.00
2022-07-26T22:01:29.901Z,100.00
2022-07-26T22:03:59.417Z,100.00
2022-07-26T22:06:31.397Z,100.00
2022-07-26T22:09:02.584Z,100.00
2022-07-26T22:11:32.108Z,100.00
2022-07-26T22:14:01.559Z,100.00
2022-07-26T22:16:31.773Z,98.75
2022-07-26T22:19:02.274Z,99.99
2022-07-26T22:21:37.041Z,99.62
2022-07-26T22:24:07.114Z,100.00
2022-07-26T22:26:36.556Z,100.00
2022-07-26T22:29:09.168Z,100.00
2022-07-26T22:31:39.005Z,100.00
2022-07-26T22:34:08.415Z,100.00
2022-07-26T22:36:45.296Z,100.00
2022-07-26T22:39:15.530Z,100.00
2022-07-26T22:42:12.564Z,100.00
2022-07-26T22:44:34.943Z,100.00
2022-07-26T22:47:04.333Z,100.00
2022-07-26T22:49:33.871Z,100.00
2022-07-26T22:52:05.979Z,100.00
2022-07-26T22:54:35.476Z,100.00
2022-07-26T22:57:04.847Z,100.00
2022-07-26T22:59:34.396Z,100.00
2022-07-26T23:02:03.797Z,100.00
2022-07-26T23:04:33.161Z,100.00
2022-07-26T23:07:06.296Z,100.00
2022-07-26T23:09:36.293Z,100.00
2022-07-26T23:12:05.702Z,100.00
2022-07-26T23:14:35.131Z,100.00
2022-07-26T23:17:04.590Z,100.00
2022-07-26T23:19:34.086Z,100.00
2022-07-26T23:22:06.658Z,100.00
2022-07-26T23:24:36.435Z,100.00
2022-07-26T23:27:06.457Z,100.00
2022-07-26T23:29:36.030Z,100.00
2022-07-26T23:32:05.418Z,100.00
2022-07-26T23:34:37.778Z,100.00
2022-07-26T23:37:09.784Z,100.00
2022-07-26T23:39:39.249Z,100.00
2022-07-26T23:42:08.754Z,100.00
2022-07-26T23:44:38.130Z,100.00
2022-07-26T23:47:07.772Z,100.00
2022-07-26T23:49:37.274Z,100.00
2022-07-26T23:52:09.313Z,100.00
2022-07-26T23:54:39.045Z,100.00
2022-07-26T23:57:08.548Z,100.00
2022-07-26T23:59:37.944Z,100.00
